.
WxDataArchive / Data Records for 2008-07-17
2008-07-16 July 2008 2008-07-18

Data Records for Thursday, 17 July 2008

Time	Temp	Chill	HIndex	Humid	Dewpt	 Wind 	HiWind	WindDir	Rain 	Barom 
-----	----	-----	------	-----	-----	------	------	-------	-----	----- 
00:00	73.9	73.9	73.9	84	68.7	0	0	---	0.00	30.074 
00:05	73.9	73.9	73.9	85	69.1	0	0	---	0.00	30.075 
00:10	73.9	73.9	73.9	85	69.1	0	1	248	0.00	30.075 
00:15	74.0	74.0	74.0	83	68.5	1	2	248	0.00	30.074 
00:20	74.4	74.4	74.4	82	68.5	0	2	158	0.00	30.075 
00:25	74.6	74.6	74.6	81	68.4	1	3	90	0.00	30.074 
00:30	74.6	74.6	74.6	81	68.4	1	3	90	0.00	30.072 
00:35	74.6	74.6	74.6	81	68.4	0	1	90	0.00	30.068 
00:40	74.4	74.4	74.4	81	68.2	0	1	90	0.00	30.069 
00:45	74.2	74.2	74.2	82	68.3	0	0	---	0.00	30.067 
00:50	73.9	73.9	73.9	82	68.0	0	0	---	0.00	30.068 
00:55	73.5	73.5	73.5	83	68.0	0	0	---	0.00	30.069 
01:00	73.2	73.2	73.2	83	67.7	0	0	---	0.00	30.068 
01:05	73.0	73.0	73.0	84	67.9	0	0	---	0.00	30.067 
01:10	72.8	72.8	72.8	84	67.7	0	0	---	0.00	30.065 
01:15	72.5	72.5	72.5	85	67.7	0	0	---	0.00	30.063 
01:20	72.3	72.3	72.3	85	67.5	0	0	---	0.00	30.062 
01:25	72.1	72.1	72.1	86	67.7	0	0	---	0.00	30.063 
01:30	71.8	71.8	71.8	86	67.4	0	0	---	0.00	30.060 
01:35	71.6	71.6	71.6	86	67.2	0	0	---	0.00	30.060 
01:40	71.5	71.5	71.5	87	67.4	0	0	---	0.00	30.059 
01:45	71.3	71.3	71.3	88	67.6	0	0	---	0.00	30.059 
01:50	70.9	70.9	70.9	88	67.2	0	0	---	0.00	30.062 
01:55	70.8	70.8	70.8	89	67.4	0	0	---	0.00	30.061 
02:00	70.6	70.6	70.6	89	67.2	0	0	---	0.00	30.061 
02:05	70.4	70.4	70.4	90	67.3	0	0	---	0.00	30.061 
02:10	70.4	70.4	70.4	90	67.3	0	0	---	0.00	30.062 
02:15	70.3	70.3	70.3	90	67.2	0	0	---	0.00	30.061 
02:20	70.3	70.3	70.3	91	67.5	0	0	---	0.00	30.062 
02:25	70.1	70.1	70.1	91	67.3	0	0	---	0.00	30.063 
02:30	70.1	70.1	70.1	91	67.3	0	0	---	0.00	30.060 
02:35	69.9	69.9	69.9	92	67.5	0	0	---	0.00	30.056 
02:40	69.9	69.9	69.9	92	67.5	0	0	---	0.00	30.056 
02:45	69.9	69.9	69.9	92	67.5	0	0	---	0.00	30.060 
02:50	69.8	69.8	69.8	92	67.4	0	0	---	0.00	30.057 
02:55	69.8	69.8	69.8	92	67.4	0	0	---	0.00	30.061 
03:00	69.8	69.8	69.8	92	67.4	0	0	---	0.00	30.065 
03:05	69.6	69.6	69.6	92	67.2	0	0	---	0.00	30.063 
03:10	69.6	69.6	69.6	92	67.2	0	0	---	0.00	30.062 
03:15	69.6	69.6	69.6	92	67.2	0	0	---	0.00	30.064 
03:20	69.6	69.6	69.6	92	67.2	0	0	---	0.00	30.064 
03:25	69.4	69.4	69.4	92	67.0	0	0	---	0.00	30.064 
03:30	69.4	69.4	69.4	92	67.0	0	0	---	0.00	30.063 
03:35	69.3	69.3	69.3	92	66.9	0	0	---	0.00	30.061 
03:40	69.1	69.1	69.1	92	66.7	0	0	---	0.00	30.062 
03:45	69.1	69.1	69.1	92	66.7	0	0	---	0.00	30.063 
03:50	68.9	68.9	68.9	92	66.5	0	0	---	0.00	30.064 
03:55	68.9	68.9	68.9	93	66.8	0	0	---	0.00	30.065 
04:00	68.8	68.8	68.8	93	66.7	0	0	---	0.00	30.066 
04:05	68.6	68.6	68.6	93	66.5	0	0	---	0.00	30.068 
04:10	68.6	68.6	68.6	93	66.5	0	0	---	0.00	30.068 
04:15	68.4	68.4	68.4	93	66.3	0	0	---	0.00	30.066 
04:20	68.4	68.4	68.4	93	66.3	0	0	---	0.00	30.066 
04:25	68.4	68.4	68.4	93	66.3	0	0	---	0.00	30.066 
04:30	68.4	68.4	68.4	94	66.6	0	0	---	0.00	30.067 
04:35	68.4	68.4	68.4	94	66.6	0	0	---	0.00	30.067 
04:40	68.3	68.3	68.3	94	66.5	0	0	---	0.00	30.068 
04:45	68.3	68.3	68.3	94	66.5	0	0	---	0.00	30.071 
04:50	68.3	68.3	68.3	94	66.5	0	0	---	0.00	30.069 
04:55	68.3	68.3	68.3	94	66.5	0	0	---	0.00	30.068 
05:00	68.4	68.4	68.4	94	66.6	0	0	---	0.00	30.070 
05:05	68.4	68.4	68.4	94	66.6	0	0	---	0.00	30.073 
05:10	68.4	68.4	68.4	94	66.6	0	0	---	0.00	30.072 
05:15	68.3	68.3	68.3	94	66.5	0	0	---	0.00	30.072 
05:20	68.3	68.3	68.3	94	66.5	0	0	---	0.00	30.073 
05:25	68.4	68.4	68.4	94	66.6	0	0	---	0.00	30.079 
05:30	68.4	68.4	68.4	94	66.6	0	0	---	0.00	30.078 
05:35	68.4	68.4	68.4	94	66.6	0	0	---	0.00	30.076 
05:40	68.4	68.4	68.4	95	66.9	0	0	---	0.00	30.078 
05:45	68.4	68.4	68.4	95	66.9	0	0	---	0.00	30.081 
05:50	68.4	68.4	68.4	95	66.9	0	0	---	0.00	30.081 
05:55	68.4	68.4	68.4	94	66.6	0	0	---	0.00	30.082 
06:00	68.6	68.6	68.6	95	67.1	0	0	---	0.00	30.083 
06:05	68.8	68.8	68.8	95	67.3	0	0	---	0.00	30.085 
06:10	69.1	69.1	69.1	95	67.6	0	0	---	0.00	30.085 
06:15	69.3	69.3	69.3	94	67.5	0	0	---	0.00	30.085 
06:20	69.8	69.8	69.8	94	68.0	0	1	90	0.00	30.085 
06:25	70.3	70.3	70.3	93	68.2	0	1	90	0.00	30.087 
06:30	70.8	70.8	70.8	92	68.4	0	0	---	0.00	30.084 
06:35	71.3	71.3	71.3	91	68.5	0	1	90	0.00	30.085 
06:40	71.8	71.8	71.8	90	68.7	0	1	90	0.00	30.089 
06:45	72.3	72.3	72.3	88	68.5	0	1	90	0.00	30.094 
06:50	72.8	72.8	72.8	86	68.4	0	0	---	0.00	30.095 
06:55	73.3	73.3	73.3	84	68.2	0	1	90	0.00	30.097 
07:00	73.9	73.9	73.9	83	68.4	0	1	90	0.00	30.097 
07:05	74.4	74.4	74.4	81	68.2	0	0	---	0.00	30.099 
07:10	74.7	74.7	74.7	80	68.1	0	1	90	0.00	30.099 
07:15	75.1	75.1	75.8	79	68.1	0	1	90	0.00	30.096 
07:20	75.6	75.6	76.6	78	68.2	0	1	90	0.00	30.096 
07:25	76.1	76.1	77.4	77	68.3	0	1	90	0.00	30.097 
07:30	76.5	76.5	78.0	75	68.0	0	2	90	0.00	30.098 
07:35	76.8	76.8	78.4	75	68.3	0	1	90	0.00	30.096 
07:40	77.2	77.2	79.0	73	67.9	0	1	90	0.00	30.095 
07:45	77.4	77.4	79.3	71	67.2	0	1	90	0.00	30.097 
07:50	77.7	77.7	79.7	71	67.5	0	1	90	0.00	30.099 
07:55	78.3	78.3	80.4	70	67.7	0	1	90	0.00	30.099 
08:00	78.6	78.6	80.8	70	68.0	0	1	90	0.00	30.101 
08:05	79.2	79.2	81.6	69	68.1	0	1	90	0.00	30.101 
08:10	79.6	79.6	82.0	67	67.7	0	2	90	0.00	30.102 
08:15	79.9	79.9	82.2	65	67.1	0	1	90	0.00	30.097 
08:20	80.1	80.1	82.5	65	67.2	0	2	90	0.00	30.096 
08:25	80.3	80.3	82.8	65	67.4	0	2	90	0.00	30.095 
08:30	80.3	80.3	82.7	64	67.0	1	3	90	0.00	30.097 
08:35	80.5	80.5	82.9	64	67.2	1	2	90	0.00	30.094 
08:40	80.5	80.5	82.9	64	67.2	1	4	270	0.00	30.095 
08:45	80.7	80.7	83.1	63	66.9	1	3	270	0.00	30.099 
08:50	80.9	80.9	83.4	63	67.1	1	3	292	0.00	30.098 
08:55	81.1	81.1	83.8	64	67.7	1	3	292	0.00	30.099 
09:00	81.4	81.4	84.1	63	67.6	1	3	292	0.00	30.100 
09:05	81.8	81.8	84.7	63	67.9	1	2	292	0.00	30.099 
09:10	82.4	82.4	85.2	61	67.6	1	3	202	0.00	30.099 
09:15	82.6	82.6	85.3	60	67.3	1	4	270	0.00	30.098 
09:20	82.8	82.8	85.4	59	67.0	1	3	248	0.00	30.102 
09:25	83.2	83.2	86.5	61	68.3	1	3	248	0.00	30.103 
09:30	83.4	83.4	86.1	58	67.0	1	3	248	0.00	30.100 
09:35	83.4	83.4	86.1	58	67.0	1	2	248	0.00	30.099 
09:40	83.8	83.8	86.7	58	67.4	1	4	292	0.00	30.100 
09:45	84.1	84.1	87.2	58	67.7	1	3	292	0.00	30.103 
09:50	84.3	84.3	86.7	55	66.3	1	4	248	0.00	30.103 
09:55	84.3	84.3	87.0	56	66.9	1	3	248	0.00	30.100 
10:00	84.7	84.7	87.6	56	67.2	1	3	270	0.00	30.100 
10:05	84.9	84.9	87.9	56	67.4	1	3	292	0.00	30.102 
10:10	85.1	85.1	87.9	55	67.1	1	4	248	0.00	30.101 
10:15	85.3	85.3	88.2	55	67.3	1	4	248	0.00	30.095 
10:20	85.3	85.3	88.2	55	67.3	2	4	248	0.00	30.096 
10:25	85.5	85.5	88.3	54	66.9	1	3	248	0.00	30.094 
10:30	85.5	85.5	88.6	55	67.5	2	3	270	0.00	30.093 
10:35	85.7	85.7	88.9	55	67.6	1	4	270	0.00	30.093 
10:40	85.9	85.9	89.6	56	68.3	1	2	292	0.00	30.093 
10:45	86.3	86.3	89.9	55	68.2	1	3	292	0.00	30.093 
10:50	85.9	85.9	88.6	53	66.7	2	4	248	0.00	30.093 
10:55	86.1	86.1	89.6	55	68.0	1	5	248	0.00	30.093 
11:00	86.7	86.7	89.9	53	67.5	2	4	248	0.00	30.093 
11:05	87.0	87.0	90.4	53	67.8	2	4	248	0.00	30.095 
11:10	87.0	87.0	89.4	50	66.1	1	4	270	0.00	30.094 
11:15	87.4	87.4	90.7	52	67.6	1	3	315	0.00	30.091 
11:20	86.7	86.7	89.6	52	66.9	1	4	270	0.00	30.091 
11:25	86.3	86.3	89.3	53	67.1	2	4	292	0.00	30.092 
11:30	86.5	86.5	89.3	52	66.7	1	3	270	0.00	30.092 
11:35	87.4	87.4	90.1	50	66.4	1	3	270	0.00	30.091 
11:40	87.4	87.4	90.4	51	67.0	1	3	270	0.00	30.090 
11:45	87.4	87.4	90.4	51	67.0	1	3	270	0.00	30.089 
11:50	86.5	86.5	88.9	51	66.2	2	4	270	0.00	30.088 
11:55	87.0	87.0	89.7	51	66.6	1	3	270	0.00	30.088 
12:00	86.1	86.1	88.0	50	65.3	1	3	270	0.00	30.085 
12:05	86.3	86.3	88.6	51	66.0	0	2	270	0.00	30.084 
12:10	87.0	87.0	89.4	50	66.1	1	3	248	0.00	30.085 
12:15	87.6	87.6	91.1	52	67.8	1	3	292	0.00	30.081 
12:20	88.2	88.2	91.4	50	67.2	1	4	270	0.00	30.082 
12:25	88.4	88.4	92.1	51	67.9	2	6	248	0.00	30.082 
12:30	88.0	88.0	90.3	48	65.8	1	4	270	0.00	30.079 
12:35	87.2	87.2	89.7	50	66.3	2	3	292	0.00	30.080 
12:40	87.2	87.2	90.1	51	66.8	2	3	292	0.00	30.079 
12:45	88.0	88.0	90.7	49	66.4	2	5	270	0.00	30.078 
12:50	87.8	87.8	90.0	48	65.6	2	5	270	0.00	30.077 
12:55	87.4	87.4	90.4	51	67.0	1	3	270	0.00	30.078 
13:00	87.0	87.0	89.4	50	66.1	1	3	270	0.00	30.077 
13:05	86.3	86.3	88.6	51	66.0	1	3	270	0.00	30.077 
13:10	86.5	86.5	88.9	51	66.2	1	2	270	0.00	30.073 
13:15	86.3	86.3	89.3	53	67.1	1	2	270	0.00	30.071 
13:20	87.0	87.0	89.7	51	66.6	1	3	248	0.00	30.069 
13:25	87.8	87.8	91.1	51	67.4	1	4	248	0.00	30.069 
13:30	88.2	88.2	90.7	48	66.0	2	6	270	0.00	30.070 
13:35	88.6	88.6	91.7	49	67.0	2	4	270	0.00	30.072 
13:40	88.6	88.6	91.7	49	67.0	2	5	270	0.00	30.071 
13:45	88.8	88.8	91.6	48	66.5	1	3	292	0.00	30.068 
13:50	88.8	88.8	92.0	49	67.1	1	5	292	0.00	30.068 
13:55	88.8	88.8	91.6	48	66.5	2	5	270	0.00	30.069 
14:00	88.8	88.8	92.0	49	67.1	1	3	270	0.00	30.066 
14:05	89.3	89.3	92.5	48	67.0	1	5	270	0.00	30.067 
14:10	89.0	89.0	91.2	46	65.5	2	4	248	0.00	30.065 
14:15	88.8	88.8	91.3	47	65.9	2	7	270	0.00	30.064 
14:20	88.8	88.8	90.9	46	65.3	2	5	270	0.00	30.064 
14:25	88.8	88.8	91.3	47	65.9	0	4	292	0.00	30.061 
14:30	89.0	89.0	91.6	47	66.1	1	6	248	0.00	30.060 
14:35	88.8	88.8	91.3	47	65.9	2	4	248	0.00	30.063 
14:40	88.4	88.4	91.0	48	66.2	0	2	270	0.00	30.062 
14:45	88.8	88.8	92.4	50	67.7	1	3	270	0.00	30.060 
14:50	89.3	89.3	92.1	47	66.4	1	3	315	0.00	30.056 
14:55	89.0	89.0	91.2	46	65.5	2	3	270	0.00	30.052 
15:00	89.0	89.0	91.2	46	65.5	2	4	270	0.00	30.049 
15:05	89.5	89.5	92.1	46	65.9	1	2	270	0.00	30.046 
15:10	89.5	89.5	92.1	46	65.9	1	4	270	0.00	30.047 
15:15	89.7	89.7	92.4	46	66.1	1	4	270	0.00	30.047 
15:20	89.5	89.5	92.1	46	65.9	1	6	292	0.00	30.046 
15:25	89.3	89.3	91.7	46	65.8	1	4	248	0.00	30.046 
15:30	88.8	88.8	90.9	46	65.3	1	2	248	0.00	30.043 
15:35	89.3	89.3	91.4	45	65.1	1	4	248	0.00	30.042 
15:40	89.3	89.3	91.7	46	65.8	1	4	248	0.00	30.045 
15:45	89.3	89.3	90.6	43	63.8	1	3	248	0.00	30.044 
15:50	89.5	89.5	90.6	42	63.3	1	3	270	0.00	30.043 
15:55	89.5	89.5	90.6	42	63.3	2	4	270	0.00	30.039 
16:00	88.8	88.8	90.2	44	64.0	1	3	270	0.00	30.036 
16:05	89.0	89.0	90.5	44	64.2	1	4	248	0.00	30.036 
16:10	89.0	89.0	90.5	44	64.2	1	5	248	0.00	30.035 
16:15	88.8	88.8	89.6	42	62.7	2	5	248	0.00	30.035 
16:20	89.0	89.0	90.2	43	63.6	1	5	68	0.00	30.034 
16:25	89.0	89.0	89.9	42	62.9	1	5	225	0.00	30.031 
16:30	89.0	89.0	89.3	40	61.5	1	3	270	0.00	30.030 
16:35	89.0	89.0	89.6	41	62.2	1	3	270	0.00	30.027 
16:40	89.0	89.0	89.6	41	62.2	1	3	270	0.00	30.024 
16:45	89.0	89.0	89.6	41	62.2	1	3	292	0.00	30.021 
16:50	89.0	89.0	89.0	39	60.8	1	3	270	0.00	30.021 
16:55	88.8	88.8	89.3	41	62.0	1	2	248	0.00	30.018 
17:00	88.8	88.8	89.3	41	62.0	1	3	248	0.00	30.017 
17:05	88.4	88.4	89.6	44	63.7	1	2	248	0.00	30.015 
17:10	88.0	88.0	89.0	44	63.3	1	3	225	0.00	30.016 
17:15	88.0	88.0	88.7	43	62.7	1	3	225	0.00	30.013 
17:20	87.8	87.8	88.5	43	62.5	1	3	270	0.00	30.012 
17:25	87.6	87.6	88.5	44	63.0	1	2	270	0.00	30.008 
17:30	87.4	87.4	88.2	44	62.8	0	3	248	0.00	30.008 
17:35	87.2	87.2	88.2	45	63.2	0	2	270	0.00	30.006 
17:40	87.2	87.2	87.4	42	61.3	1	3	270	0.00	30.006 
17:45	87.2	87.2	87.9	44	62.6	1	3	270	0.00	30.005 
17:50	87.0	87.0	87.9	45	63.1	1	4	270	0.00	30.005 
17:55	86.7	86.7	87.5	45	62.8	1	3	270	0.00	30.003 
18:00	86.5	86.5	87.0	44	62.0	1	5	225	0.00	29.999 
18:05	86.5	86.5	87.0	44	62.0	1	3	270	0.00	29.996 
18:10	86.5	86.5	87.5	46	63.2	0	2	248	0.00	29.995 
18:15	86.3	86.3	87.2	46	63.0	1	2	248	0.00	29.996 
18:20	86.1	86.1	87.2	47	63.5	0	1	248	0.00	29.997 
18:25	86.1	86.1	87.5	48	64.1	1	2	248	0.00	29.998 
18:30	85.9	85.9	87.2	48	63.9	0	2	248	0.00	29.998 
18:35	85.9	85.9	87.2	48	63.9	1	2	248	0.00	29.997 
18:40	85.7	85.7	87.2	49	64.3	0	2	248	0.00	29.997 
18:45	85.5	85.5	86.9	49	64.1	1	2	248	0.00	29.997 
18:50	85.3	85.3	86.6	49	63.9	0	1	248	0.00	29.998 
18:55	85.1	85.1	86.6	50	64.3	0	2	248	0.00	29.999 
19:00	84.7	84.7	86.3	51	64.5	0	1	248	0.00	29.994 
19:05	84.7	84.7	86.3	51	64.5	1	2	248	0.00	29.985 
19:10	84.5	84.5	86.0	51	64.4	1	3	248	0.00	29.989 
19:15	84.5	84.5	86.3	52	64.9	0	1	248	0.00	29.986 
19:20	84.3	84.3	86.2	53	65.3	0	1	248	0.00	29.992 
19:25	84.1	84.1	85.9	53	65.1	0	0	---	0.00	29.989 
19:30	84.0	84.0	86.0	54	65.5	0	0	---	0.00	29.986 
19:35	83.6	83.6	85.5	54	65.2	0	1	248	0.00	29.985 
19:40	83.4	83.4	85.4	55	65.5	0	0	---	0.00	29.986 
19:45	83.0	83.0	85.1	56	65.7	0	0	---	0.00	29.987 
19:50	82.8	82.8	84.8	56	65.5	0	0	---	0.00	29.984 
19:55	82.4	82.4	84.4	57	65.6	0	0	---	0.00	29.985 
20:00	81.8	81.8	83.8	58	65.6	0	0	---	0.00	29.987 
20:05	81.4	81.4	83.4	59	65.7	0	0	---	0.00	29.985 
20:10	81.1	81.1	83.0	59	65.4	0	0	---	0.00	29.983 
20:15	80.9	80.9	82.9	60	65.7	0	0	---	0.00	29.983 
20:20	80.3	80.3	82.3	61	65.6	0	0	---	0.00	29.983 
20:25	79.9	79.9	81.9	62	65.7	0	0	---	0.00	29.986 
20:30	79.6	79.6	81.5	62	65.4	0	0	---	0.00	29.989 
20:35	79.4	79.4	81.4	63	65.7	0	0	---	0.00	29.988 
20:40	79.0	79.0	81.0	64	65.8	0	0	---	0.00	29.988 
20:45	78.8	78.8	80.8	65	66.0	0	0	---	0.00	29.987 
20:50	78.5	78.5	80.5	66	66.2	0	0	---	0.00	29.989 
20:55	78.1	78.1	80.0	66	65.8	0	0	---	0.00	29.992 
21:00	77.7	77.7	79.6	67	65.8	0	0	---	0.00	29.991 
21:05	77.4	77.4	79.2	68	66.0	0	0	---	0.00	29.989 
21:10	77.2	77.2	79.0	69	66.2	0	0	---	0.00	29.988 
21:15	76.8	76.8	78.5	70	66.3	0	0	---	0.00	29.989 
21:20	76.7	76.7	78.4	70	66.2	0	0	---	0.00	29.989 
21:25	76.5	76.5	78.2	71	66.4	0	0	---	0.00	29.988 
21:30	76.1	76.1	77.7	72	66.4	0	0	---	0.00	29.992 
21:35	76.0	76.0	77.5	72	66.3	0	0	---	0.00	29.996 
21:40	75.8	75.8	77.3	73	66.5	0	0	---	0.00	29.996 
21:45	75.4	75.4	76.8	73	66.1	0	0	---	0.00	29.995 
21:50	75.3	75.3	76.6	74	66.4	0	0	---	0.00	29.992 
21:55	75.1	75.1	76.3	75	66.6	0	0	---	0.00	29.990 
22:00	74.7	74.7	74.7	76	66.6	0	0	---	0.00	29.989 
22:05	74.6	74.6	74.6	76	66.5	0	0	---	0.00	29.984 
22:10	74.6	74.6	74.6	77	66.9	0	0	---	0.00	29.984 
22:15	74.4	74.4	74.4	78	67.1	0	0	---	0.00	29.984 
22:20	74.2	74.2	74.2	78	66.9	0	0	---	0.00	29.984 
22:25	74.0	74.0	74.0	79	67.1	0	0	---	0.00	29.983 
22:30	74.0	74.0	74.0	80	67.4	0	0	---	0.00	29.983 
22:35	74.0	74.0	74.0	80	67.4	0	0	---	0.00	29.983 
22:40	74.0	74.0	74.0	80	67.4	0	0	---	0.00	29.982 
22:45	73.9	73.9	73.9	81	67.7	0	0	---	0.00	29.980 
22:50	73.9	73.9	73.9	81	67.7	0	0	---	0.00	29.979 
22:55	73.7	73.7	73.7	81	67.5	0	0	---	0.00	29.980 
23:00	73.7	73.7	73.7	81	67.5	0	0	---	0.00	29.977 
23:05	73.5	73.5	73.5	82	67.7	0	0	---	0.00	29.980 
23:10	73.3	73.3	73.3	82	67.5	0	0	---	0.00	29.980 
23:15	73.2	73.2	73.2	83	67.7	0	0	---	0.00	29.976 
23:20	73.0	73.0	73.0	83	67.5	0	0	---	0.00	29.974 
23:25	73.0	73.0	73.0	83	67.5	0	0	---	0.00	29.973 
23:30	72.8	72.8	72.8	84	67.7	0	0	---	0.00	29.973 
23:35	72.8	72.8	72.8	84	67.7	0	0	---	0.00	29.975 
23:40	72.7	72.7	72.7	84	67.6	0	0	---	0.00	29.976 
23:45	72.7	72.7	72.7	84	67.6	0	0	---	0.00	29.972 
23:50	72.5	72.5	72.5	84	67.4	0	0	---	0.00	29.974 
23:55	72.5	72.5	72.5	84	67.4	0	0	---	0.00	29.972 

CoCoRaHS
IN-AL-39
A2 Web Hosting
Creative Commons License
GoDaddy
Look for:

loaded 2017-10-17 22:16:23 • last modified 2010-11-18 10:43:29
Privacy PolicyDisclaimer
• wx.awcolley.com is powered by PmWiki v.2002016 •
• all content (unless otherwise noted) © 2017 A W Colley